Time;durP1;ratioP1;P1;durP2;ratioP2;P2;SDS_P1;SDS_P2;PMS_P1;PMS_P2;Temp;Humidity;BMP_temperature;BMP_pressure;BME280_temperature;BME280_humidity;BME280_pressure;Samples;Min_cycle;Max_cycle;Signal;HPM_P1;HPM_P2
2022/11/01 00:01:56;;;;;;;21.10;8.57;;;;;;;20.92;100.00;97013.31;6129522;23;20006;-96
2022/11/01 00:04:22;;;;;;;20.67;9.43;;;;;;;21.19;100.00;97003.28;6129870;23;19997;-95
2022/11/01 00:06:48;;;;;;;17.58;8.95;;;;;;;21.07;100.00;96991.84;6129477;23;20056;-96
2022/11/01 00:09:14;;;;;;;17.95;8.70;;;;;;;20.25;100.00;96984.94;6128238;23;20017;-96
2022/11/01 00:11:39;;;;;;;18.83;8.57;;;;;;;20.97;100.00;96991.75;6128407;23;20710;-96
2022/11/01 00:14:06;;;;;;;24.25;9.90;;;;;;;21.41;100.00;96960.78;6154709;23;20022;-96
2022/11/01 00:16:31;;;;;;;29.73;8.65;;;;;;;21.00;100.00;96972.09;6128562;23;20013;-96
2022/11/01 00:18:57;;;;;;;26.35;7.45;;;;;;;23.27;100.00;97416.69;6129175;23;20144;-96
2022/11/01 00:21:23;;;;;;;22.23;7.68;;;;;;;23.09;100.00;97131.81;6127027;23;20009;-96
2022/11/01 00:23:52;;;;;;;16.80;6.22;;;;;;;21.49;100.00;97056.50;6127919;23;20642;-96
2022/11/01 00:26:21;;;;;;;49.58;8.43;;;;;;;21.77;100.00;97022.44;6128070;23;20037;-96
2022/11/01 00:28:47;;;;;;;14.02;5.40;;;;;;;20.29;100.00;96991.69;6127962;23;20020;-95
2022/11/01 00:31:15;;;;;;;15.27;6.90;;;;;;;20.23;100.00;96973.66;6127779;23;20002;-96
2022/11/01 00:33:41;;;;;;;20.35;7.72;;;;;;;20.56;100.00;96974.66;6126749;23;20498;-96
2022/11/01 00:36:07;;;;;;;22.73;9.13;;;;;;;20.83;100.00;96968.16;6131114;23;20020;-96
2022/11/01 00:38:36;;;;;;;34.38;11.00;;;;;;;20.31;100.00;96936.84;6138336;23;20013;-96
2022/11/01 00:41:03;;;;;;;86.47;14.63;;;;;;;20.25;100.00;96921.41;6145013;23;20047;-96
2022/11/01 00:43:33;;;;;;;26.83;12.48;;;;;;;19.58;100.00;96907.09;6138427;23;20028;-96
2022/11/01 00:46:02;;;;;;;28.20;12.43;;;;;;;26.76;100.00;96841.00;6168343;23;20012;-96
2022/11/01 00:48:28;;;;;;;29.17;11.18;;;;;;;17.25;100.00;97037.47;6135252;23;19998;-96
2022/11/01 00:50:54;;;;;;;31.95;13.45;;;;;;;17.26;100.00;96983.00;6131706;23;20009;-96
2022/11/01 00:53:20;;;;;;;41.90;15.70;;;;;;;17.44;100.00;96960.72;6135652;23;20002;-96
2022/11/01 00:56:01;;;;;;;34.15;13.95;;;;;;;16.80;100.00;96953.38;6142853;23;20012;-96
2022/11/01 00:58:37;;;;;;;36.20;13.40;;;;;;;15.79;100.00;96913.06;6148015;23;20010;-96
2022/11/01 01:01:14;;;;;;;34.90;13.75;;;;;;;17.87;100.00;96902.50;6167654;23;20017;-96
2022/11/01 01:03:40;;;;;;;36.40;14.38;;;;;;;19.67;100.00;96868.53;6135067;23;20059;-96
2022/11/01 01:06:12;;;;;;;26.50;12.43;;;;;;;20.37;100.00;96830.44;6132541;23;20006;-96
2022/11/01 01:08:38;;;;;;;22.90;11.05;;;;;;;20.44;100.00;96801.69;6132612;23;20005;-96
2022/11/01 01:11:03;;;;;;;20.55;9.52;;;;;;;19.21;100.00;96789.13;6130414;23;20067;-96
2022/11/01 01:13:29;;;;;;;13.75;6.25;;;;;;;18.68;100.00;96775.47;6131379;23;20131;-96
2022/11/01 01:15:56;;;;;;;10.07;4.30;;;;;;;18.31;100.00;96786.06;6139162;23;20018;-96
2022/11/01 01:18:22;;;;;;;10.82;4.78;;;;;;;18.34;100.00;96789.31;6138821;23;20017;-96
2022/11/01 01:21:06;;;;;;;12.30;5.28;;;;;;;18.53;100.00;96791.47;6139578;23;20514;-96
2022/11/01 01:23:32;;;;;;;13.13;4.85;;;;;;;17.89;100.00;96770.53;6144337;23;20057;-96
2022/11/01 01:25:58;;;;;;;11.07;4.38;;;;;;;18.13;100.00;96775.03;6135006;23;20137;-96
2022/11/01 01:28:24;;;;;;;11.73;4.43;;;;;;;17.94;100.00;96771.09;6141982;23;20033;-96
2022/11/01 01:30:49;;;;;;;11.00;3.97;;;;;;;16.30;100.00;96766.19;6148242;23;20002;-96
2022/11/01 01:33:21;;;;;;;9.35;3.35;;;;;;;16.70;100.00;96783.78;6167562;23;20001;-96
2022/11/01 01:35:47;;;;;;;9.00;3.47;;;;;;;16.53;100.00;96772.59;6132531;23;20045;-95
2022/11/01 01:38:12;;;;;;;8.50;3.28;;;;;;;15.62;100.00;96766.94;6127846;23;19998;-96
2022/11/01 01:40:45;;;;;;;10.35;3.60;;;;;;;15.38;100.00;96766.63;6138046;23;20009;-96
2022/11/01 01:43:11;;;;;;;9.38;3.88;;;;;;;15.25;100.00;96756.84;6151123;23;20009;-93
2022/11/01 01:45:40;;;;;;;10.85;4.60;;;;;;;17.21;100.00;96762.03;6155921;23;20150;-94
2022/11/01 01:48:10;;;;;;;9.95;4.40;;;;;;;18.17;100.00;96734.28;6155705;23;20029;-94
2022/11/01 01:50:50;;;;;;;8.15;3.47;;;;;;;18.18;100.00;96713.06;6155871;23;20053;-96
2022/11/01 01:53:22;;;;;;;8.55;3.60;;;;;;;18.36;100.00;96708.25;6159764;23;20023;-95
2022/11/01 01:55:59;;;;;;;10.07;3.30;;;;;;;17.24;100.00;96695.94;6158266;23;20009;-94
2022/11/01 01:58:29;;;;;;;8.85;2.80;;;;;;;20.13;100.00;96828.78;6158533;23;20064;-90
2022/11/01 02:00:55;;;;;;;10.25;2.78;;;;;;;23.69;100.00;96804.56;6156683;23;20013;-92
2022/11/01 02:03:24;;;;;;;8.23;2.28;;;;;;;22.23;100.00;96707.06;6184119;23;20480;-93
2022/11/01 02:05:53;;;;;;;5.63;1.40;;;;;;;20.76;100.00;96674.59;6158291;23;20056;-93
2022/11/01 02:08:26;;;;;;;5.28;1.55;;;;;;;19.86;100.00;96657.22;6159320;23;20008;-93
2022/11/01 02:10:58;;;;;;;8.40;2.00;;;;;;;19.45;100.00;96656.88;6186497;23;20005;-94
2022/11/01 02:13:24;;;;;;;8.52;2.17;;;;;;;20.88;100.00;96658.66;6158018;23;20004;-94
2022/11/01 02:15:58;;;;;;;7.20;2.53;;;;;;;18.73;100.00;96650.06;6183171;23;20422;-93
2022/11/01 02:18:48;;;;;;;8.63;2.67;;;;;;;18.39;100.00;96657.03;6157483;23;20009;-93
2022/11/01 02:21:59;;;;;;;9.55;3.70;;;;;;;19.48;100.00;96652.31;6156595;23;20005;-93
2022/11/01 02:24:48;;;;;;;10.88;3.50;;;;;;;18.76;100.00;96660.41;6156632;23;20519;-94
2022/11/01 02:27:33;;;;;;;10.00;3.92;;;;;;;18.31;100.00;96678.72;6156541;23;20406;-94
2022/11/01 02:30:04;;;;;;;9.65;4.18;;;;;;;18.09;100.00;96687.34;6155298;23;20087;-94
2022/11/01 02:32:51;;;;;;;12.65;4.28;;;;;;;18.67;100.00;96684.84;6156747;23;20017;-94
2022/11/01 02:35:22;;;;;;;9.20;4.07;;;;;;;18.01;100.00;96693.22;6154404;23;20016;-94
2022/11/01 02:38:07;;;;;;;9.40;3.90;;;;;;;16.97;100.00;96686.38;6181077;23;20789;-93
2022/11/01 02:40:41;;;;;;;11.90;4.68;;;;;;;17.42;100.00;96685.09;6155703;23;20032;-95
2022/11/01 02:43:15;;;;;;;11.88;4.50;;;;;;;17.67;100.00;96695.56;6156515;23;20025;-94
2022/11/01 02:45:46;;;;;;;12.95;4.40;;;;;;;17.64;100.00;96685.25;6156907;23;20013;-94
2022/11/01 02:48:12;;;;;;;11.70;4.65;;;;;;;18.00;100.00;96686.25;6155299;23;20012;-93
2022/11/01 02:50:48;;;;;;;11.82;4.60;;;;;;;18.12;100.00;96675.75;6155522;23;20009;-95
2022/11/01 02:53:13;;;;;;;11.48;4.00;;;;;;;17.37;100.00;96674.88;6154901;23;20001;-94
2022/11/01 02:55:39;;;;;;;10.40;3.60;;;;;;;17.67;100.00;96679.75;6182459;23;20016;-91
2022/11/01 02:58:27;;;;;;;10.90;3.47;;;;;;;17.54;100.00;96681.59;6181620;23;20017;-94
2022/11/01 03:00:55;;;;;;;10.15;3.30;;;;;;;16.64;100.00;96676.31;6153833;23;20001;-93
2022/11/01 03:03:29;;;;;;;9.55;3.10;;;;;;;16.62;100.00;96693.97;6151495;23;20017;-94
2022/11/01 03:06:04;;;;;;;12.07;3.33;;;;;;;16.60;100.00;96680.91;6155472;23;20001;-95
2022/11/01 03:08:39;;;;;;;10.63;3.15;;;;;;;16.95;100.00;96682.16;6183110;23;20484;-94
2022/11/01 03:11:07;;;;;;;10.57;2.60;;;;;;;16.21;100.00;96680.84;6156013;23;20013;-94
2022/11/01 03:13:59;;;;;;;13.77;3.15;;;;;;;16.87;100.00;96674.75;6182187;23;20012;-94
2022/11/01 03:16:41;;;;;;;10.52;2.85;;;;;;;17.15;100.00;96678.16;6182333;23;20012;-94
2022/11/01 03:19:22;;;;;;;10.95;2.80;;;;;;;17.25;100.00;96668.66;6155929;23;20036;-95
2022/11/01 03:22:09;;;;;;;8.45;2.58;;;;;;;16.40;100.00;96674.34;6181952;23;20012;-93
2022/11/01 03:24:43;;;;;;;10.02;2.40;;;;;;;17.16;100.00;96674.56;6156467;23;20804;-94
2022/11/01 03:27:12;;;;;;;10.05;2.45;;;;;;;16.91;100.00;96673.63;6156623;23;20023;-94
2022/11/01 03:29:39;;;;;;;7.63;2.35;;;;;;;16.93;100.00;96678.78;6182525;23;20024;-93
2022/11/01 03:32:06;;;;;;;8.73;2.22;;;;;;;16.92;100.00;96671.84;6181883;23;20051;-94
2022/11/01 03:34:36;;;;;;;6.55;2.00;;;;;;;16.84;100.00;96667.03;6155361;23;19997;-94
2022/11/01 03:37:05;;;;;;;7.60;1.80;;;;;;;16.29;100.00;96690.84;6155033;23;20024;-93
2022/11/01 03:39:44;;;;;;;6.45;1.85;;;;;;;16.11;100.00;96686.78;6154631;23;20083;-94
2022/11/01 03:42:17;;;;;;;8.77;2.20;;;;;;;16.29;100.00;96693.47;6155860;23;20104;-92
2022/11/01 03:44:47;;;;;;;9.18;3.28;;;;;;;16.59;100.00;96707.34;6155087;23;20009;-93
2022/11/01 03:47:14;;;;;;;7.78;2.63;;;;;;;16.68;100.00;96702.31;6156323;23;20100;-94
2022/11/01 03:49:39;;;;;;;13.35;5.63;;;;;;;16.65;100.00;96704.31;6156268;23;20056;-94
2022/11/01 03:52:04;;;;;;;12.60;4.18;;;;;;;16.66;100.00;96698.94;6181793;23;20475;-93
2022/11/01 03:54:30;;;;;;;10.77;4.70;;;;;;;16.44;100.00;96702.16;6155719;23;20013;-94
2022/11/01 03:56:55;;;;;;;8.38;3.22;;;;;;;17.43;100.00;96705.22;6183008;23;20008;-94
2022/11/01 03:59:22;;;;;;;9.18;3.10;;;;;;;16.70;100.00;96710.09;6182257;23;20075;-94
2022/11/01 04:01:48;;;;;;;7.72;2.63;;;;;;;16.08;100.00;96714.13;6150572;23;20008;-93
2022/11/01 04:04:13;;;;;;;11.80;3.70;;;;;;;16.38;100.00;96706.03;6180617;23;20331;-93
2022/11/01 04:06:39;;;;;;;9.55;3.20;;;;;;;16.52;100.00;96702.50;6152070;23;20272;-92
2022/11/01 04:09:04;;;;;;;9.15;3.58;;;;;;;16.31;100.00;96719.66;6181002;23;20226;-92
2022/11/01 04:11:29;;;;;;;9.25;3.80;;;;;;;16.36;100.00;96717.59;6180724;23;20302;-93
2022/11/01 04:20:31;;;;;;;8.75;3.50;;;;;;;16.66;100.00;96720.00;6153490;23;20079;-92
2022/11/01 04:22:13;;;;;;;7.35;2.10;;;;;;;15.97;100.00;96737.63;6180065;23;20028;-92
2022/11/01 04:24:39;;;;;;;7.30;2.80;;;;;;;16.91;100.00;96828.97;6152132;23;20008;-92
2022/11/01 04:27:04;;;;;;;6.72;2.50;;;;;;;15.91;100.00;96770.41;6177682;23;20372;-93
2022/11/01 04:29:30;;;;;;;7.40;2.60;;;;;;;16.58;100.00;96756.50;6150622;23;20012;-93
2022/11/01 04:31:55;;;;;;;6.47;1.67;;;;;;;16.06;100.00;96755.47;6150481;23;20017;-92
2022/11/01 04:34:41;;;;;;;6.80;2.03;;;;;;;16.18;100.00;96759.91;6149663;23;20009;-91
2022/11/01 04:37:07;;;;;;;6.32;2.30;;;;;;;15.84;100.00;96743.66;6176525;23;20009;-91
2022/11/01 04:39:32;;;;;;;6.68;2.47;;;;;;;15.70;100.00;96776.03;6150134;23;20715;-92
2022/11/01 04:41:58;;;;;;;6.85;2.17;;;;;;;16.14;100.00;96781.25;6150108;23;20011;-92
2022/11/01 04:44:23;;;;;;;6.75;2.08;;;;;;;15.75;100.00;96785.41;6148435;23;20013;-92
2022/11/01 04:46:48;;;;;;;5.05;1.65;;;;;;;15.80;100.00;96799.97;6149789;23;20096;-93
2022/11/01 04:49:14;;;;;;;5.35;1.45;;;;;;;15.83;100.00;96802.41;6150791;23;20611;-92
2022/11/01 04:51:41;;;;;;;5.32;1.40;;;;;;;15.89;100.00;96813.50;6150318;23;20012;-92
2022/11/01 04:54:06;;;;;;;4.45;1.25;;;;;;;15.24;100.00;96839.22;6150136;23;20017;-90
2022/11/01 04:56:32;;;;;;;4.75;1.38;;;;;;;15.52;100.00;96819.19;6149627;23;20013;-92
2022/11/01 04:58:58;;;;;;;4.72;1.33;;;;;;;15.35;100.00;96842.06;6150124;23;20009;-92
2022/11/01 05:01:24;;;;;;;5.20;1.50;;;;;;;15.02;100.00;96845.72;6150544;23;20008;-92
2022/11/01 05:03:50;;;;;;;8.27;1.50;;;;;;;15.11;100.00;96831.19;6152519;23;20374;-92
2022/11/01 05:06:15;;;;;;;6.53;1.63;;;;;;;15.39;100.00;96845.31;6151183;23;20058;-92
2022/11/01 05:08:41;;;;;;;5.97;1.77;;;;;;;15.42;100.00;96853.03;6149745;23;20009;-93
2022/11/01 05:11:06;;;;;;;7.88;2.30;;;;;;;15.60;100.00;96856.34;6150310;23;20469;-93
2022/11/01 05:13:32;;;;;;;5.72;1.85;;;;;;;15.43;100.00;96853.88;6149529;23;20017;-94
2022/11/01 05:15:57;;;;;;;7.63;2.33;;;;;;;15.47;100.00;96864.09;6149725;23;20083;-93
2022/11/01 05:18:23;;;;;;;8.57;2.80;;;;;;;15.61;100.00;96868.53;6150130;23;20009;-93
2022/11/01 05:20:48;;;;;;;6.47;2.30;;;;;;;15.47;100.00;96897.41;6150492;23;20245;-92
2022/11/01 05:23:13;;;;;;;7.57;2.60;;;;;;;15.52;100.00;96879.63;6149696;23;20111;-91
2022/11/01 05:25:39;;;;;;;7.55;2.60;;;;;;;15.35;100.00;96889.34;6175373;23;20012;-93
2022/11/01 05:28:11;;;;;;;8.50;3.20;;;;;;;15.41;100.00;96895.16;6149846;23;20017;-93
2022/11/01 05:30:37;;;;;;;8.38;3.60;;;;;;;15.25;100.00;96893.41;6152781;23;20435;-91
2022/11/01 05:33:04;;;;;;;10.00;4.40;;;;;;;15.25;100.00;96901.28;6176326;23;20038;-91
2022/11/01 05:35:30;;;;;;;7.40;2.45;;;;;;;15.51;100.00;96931.28;6150140;23;20088;-92
2022/11/01 05:37:56;;;;;;;5.95;1.30;;;;;;;15.84;100.00;96921.56;6175774;23;20039;-91
2022/11/01 05:40:22;;;;;;;5.13;1.40;;;;;;;14.59;100.00;96905.84;6149128;23;20189;-92
2022/11/01 05:42:47;;;;;;;5.32;1.20;;;;;;;19.41;100.00;97027.31;6148182;23;20100;-92
2022/11/01 05:45:13;;;;;;;4.25;1.00;;;;;;;15.36;100.00;96969.81;6175616;23;20037;-91
2022/11/01 05:47:42;;;;;;;4.85;0.98;;;;;;;15.17;100.00;96948.16;6150013;23;20005;-92
2022/11/01 05:50:13;;;;;;;6.10;1.00;;;;;;;14.66;100.00;96954.44;6150358;23;20463;-91
2022/11/01 05:52:39;;;;;;;4.90;1.00;;;;;;;15.36;100.00;96954.06;6153078;23;20005;-92
2022/11/01 05:55:06;;;;;;;3.00;0.75;;;;;;;15.50;100.00;96955.03;6178630;23;20024;-91
2022/11/01 05:57:31;;;;;;;4.93;0.90;;;;;;;14.53;100.00;96953.41;6149535;23;20017;-94
2022/11/01 05:59:57;;;;;;;5.60;0.80;;;;;;;15.09;100.00;96958.25;6150411;23;20009;-91
2022/11/01 06:02:22;;;;;;;4.65;0.90;;;;;;;14.81;100.00;96993.91;6150419;23;20001;-91
2022/11/01 06:04:48;;;;;;;5.28;0.80;;;;;;;14.45;100.00;96993.13;6149745;23;20005;-91
2022/11/01 06:07:13;;;;;;;5.05;0.90;;;;;;;14.31;100.00;96991.25;6148479;23;20001;-93
2022/11/01 06:09:39;;;;;;;7.05;1.13;;;;;;;14.36;100.00;96988.38;6150610;23;20013;-93
2022/11/01 06:12:05;;;;;;;4.28;0.80;;;;;;;14.63;100.00;97032.47;6150174;23;20347;-93
2022/11/01 06:14:30;;;;;;;5.30;0.93;;;;;;;14.05;100.00;97007.50;6176765;23;20399;-92
2022/11/01 06:16:55;;;;;;;4.50;1.00;;;;;;;15.83;100.00;97015.31;6150848;23;20009;-93
2022/11/01 06:19:21;;;;;;;6.13;1.10;;;;;;;15.63;100.00;97013.84;6148734;23;20118;-93
2022/11/01 06:21:46;;;;;;;5.57;1.10;;;;;;;15.60;100.00;97011.38;6150576;23;20009;-93
2022/11/01 06:24:12;;;;;;;4.00;0.70;;;;;;;15.41;100.00;97011.59;6151073;23;20005;-92
2022/11/01 06:26:37;;;;;;;5.15;0.85;;;;;;;16.16;100.00;97016.06;6149578;23;20005;-94
2022/11/01 06:29:04;;;;;;;4.88;0.90;;;;;;;16.12;100.00;97031.19;6152137;23;20024;-92
2022/11/01 06:31:29;;;;;;;3.63;0.80;;;;;;;16.38;100.00;97012.97;6153261;23;20053;-93
2022/11/01 06:33:55;;;;;;;6.70;1.27;;;;;;;15.62;100.00;97033.16;6149548;23;20021;-92
2022/11/01 06:36:21;;;;;;;4.80;1.00;;;;;;;16.10;100.00;97014.63;6149068;23;20048;-92
2022/11/01 06:38:46;;;;;;;5.93;1.50;;;;;;;16.17;100.00;97029.13;6150755;23;20004;-91
2022/11/01 06:41:12;;;;;;;7.97;1.20;;;;;;;16.50;100.00;97053.50;6150858;23;20027;-91
2022/11/01 06:43:38;;;;;;;8.38;1.27;;;;;;;15.84;100.00;97045.09;6178138;23;20043;-92
2022/11/01 06:46:03;;;;;;;8.73;1.63;;;;;;;16.26;100.00;97061.09;6152814;23;20118;-93
2022/11/01 06:48:29;;;;;;;5.95;1.00;;;;;;;15.78;100.00;97040.16;6154280;23;20091;-95
2022/11/01 06:50:57;;;;;;;7.65;1.10;;;;;;;16.23;100.00;97054.22;6156072;23;20011;-93
2022/11/01 06:53:23;;;;;;;5.78;1.20;;;;;;;15.88;100.00;97067.66;6153246;23;20083;-93
2022/11/01 06:55:49;;;;;;;5.28;1.10;;;;;;;15.88;100.00;97057.13;6154415;23;20051;-92
2022/11/01 06:58:15;;;;;;;7.47;1.00;;;;;;;15.69;100.00;97073.06;6180234;23;20044;-92
2022/11/01 07:00:41;;;;;;;7.47;1.10;;;;;;;16.24;100.00;97070.84;6152836;23;20052;-94
2022/11/01 07:03:09;;;;;;;7.00;1.27;;;;;;;15.85;100.00;97078.31;6153722;23;20466;-93
2022/11/01 07:05:36;;;;;;;7.10;1.20;;;;;;;16.05;100.00;97074.56;6153483;23;19997;-93
2022/11/01 07:08:03;;;;;;;6.72;1.10;;;;;;;16.40;100.00;97086.56;6154134;23;20116;-92
2022/11/01 07:10:28;;;;;;;10.57;1.48;;;;;;;17.40;100.00;97089.19;6153875;23;20681;-91
2022/11/01 07:12:58;;;;;;;7.50;1.33;;;;;;;16.15;100.00;97090.66;6153115;23;20011;-91
2022/11/01 07:15:24;;;;;;;8.20;1.40;;;;;;;15.89;100.00;97097.41;6153321;23;20015;-92
2022/11/01 07:17:54;;;;;;;9.57;1.67;;;;;;;15.62;100.00;97112.00;6151045;23;20092;-90
2022/11/01 07:20:19;;;;;;;10.43;1.67;;;;;;;16.23;100.00;97101.56;6177054;23;20020;-90
2022/11/01 07:22:44;;;;;;;9.57;1.50;;;;;;;16.70;100.00;97102.28;6176832;23;20060;-90
2022/11/01 07:25:13;;;;;;;10.27;1.60;;;;;;;16.17;100.00;97096.66;6150614;23;20041;-90
2022/11/01 07:27:38;;;;;;;15.50;1.92;;;;;;;16.23;100.00;97098.94;6149013;23;20491;-91
2022/11/01 07:30:04;;;;;;;11.75;1.45;;;;;;;16.04;100.00;97107.03;6150277;23;20531;-92
2022/11/01 07:32:29;;;;;;;9.57;1.55;;;;;;;16.43;100.00;97112.69;6149079;23;20058;-91
2022/11/01 07:34:54;;;;;;;12.40;1.65;;;;;;;15.75;100.00;97108.66;6149062;23;20013;-92
2022/11/01 07:37:20;;;;;;;14.13;1.52;;;;;;;15.96;100.00;97106.63;6151522;23;20613;-92
2022/11/01 07:39:46;;;;;;;11.95;1.60;;;;;;;16.77;100.00;97110.66;6152538;23;20091;-92
2022/11/01 07:42:11;;;;;;;11.88;1.60;;;;;;;17.12;100.00;97105.91;6152991;23;20016;-91
2022/11/01 07:44:37;;;;;;;9.68;2.05;;;;;;;16.28;100.00;97103.91;6153100;23;20013;-92
2022/11/01 07:47:02;;;;;;;7.85;1.90;;;;;;;16.75;100.00;97104.66;6179936;23;20084;-91
2022/11/01 07:49:27;;;;;;;8.45;1.63;;;;;;;15.80;100.00;97098.78;6153261;23;20001;-93
2022/11/01 07:51:53;;;;;;;11.48;1.60;;;;;;;16.72;100.00;97101.25;6153028;23;20021;-91
2022/11/01 07:54:18;;;;;;;12.75;2.30;;;;;;;17.07;100.00;97110.59;6180463;23;20028;-92
2022/11/01 07:56:43;;;;;;;13.27;2.00;;;;;;;17.16;100.00;97093.38;6154164;23;20021;-92
2022/11/01 07:59:09;;;;;;;10.30;1.50;;;;;;;16.88;100.00;97079.25;6150973;23;20012;-91
2022/11/01 08:01:34;;;;;;;8.65;1.90;;;;;;;16.91;100.00;97089.66;6152679;23;20335;-91
2022/11/01 08:03:59;;;;;;;21.58;2.28;;;;;;;17.22;100.00;97085.94;6152758;23;20147;-92
2022/11/01 08:06:25;;;;;;;8.93;1.60;;;;;;;15.58;100.00;97075.47;6152830;23;20012;-91
2022/11/01 08:08:50;;;;;;;9.10;2.00;;;;;;;17.45;100.00;97094.16;6152842;23;20553;-91
2022/11/01 08:11:16;;;;;;;12.93;1.73;;;;;;;16.28;100.00;97093.41;6179215;23;20017;-92
2022/11/01 08:13:41;;;;;;;12.52;2.20;;;;;;;16.54;100.00;97094.47;6153879;23;20096;-92
2022/11/01 08:16:06;;;;;;;13.38;2.03;;;;;;;18.15;100.00;97085.28;6152955;23;20012;-92
2022/11/01 08:18:32;;;;;;;13.88;1.80;;;;;;;19.23;100.00;97071.78;6149160;23;20091;-92
2022/11/01 08:20:59;;;;;;;15.02;1.80;;;;;;;17.73;100.00;97064.25;6149988;23;20079;-91
2022/11/01 08:23:25;;;;;;;13.88;1.75;;;;;;;18.06;100.00;97099.94;6149784;23;20340;-90
2022/11/01 08:25:50;;;;;;;12.07;2.13;;;;;;;18.24;100.00;97087.28;6148126;23;20005;-92
2022/11/01 08:28:17;;;;;;;12.80;1.83;;;;;;;18.26;100.00;97087.22;6148534;23;20065;-91
2022/11/01 08:30:45;;;;;;;14.32;2.35;;;;;;;17.42;100.00;97083.81;6149189;23;20017;-91
2022/11/01 08:33:11;;;;;;;12.73;1.77;;;;;;;17.28;100.00;97099.69;6146790;23;20001;-91
2022/11/01 08:35:37;;;;;;;9.65;1.90;;;;;;;17.42;100.00;97117.25;6147667;23;20005;-91
2022/11/01 08:38:03;;;;;;;11.43;1.85;;;;;;;16.91;100.00;97096.69;6175442;23;20745;-90
2022/11/01 08:40:31;;;;;;;11.38;2.25;;;;;;;16.62;100.00;97107.16;6149331;23;20402;-91
2022/11/01 08:42:59;;;;;;;12.85;1.77;;;;;;;17.23;100.00;97115.78;6146594;23;20456;-90
2022/11/01 08:45:28;;;;;;;12.00;2.30;;;;;;;17.13;100.00;97126.03;6174501;23;20009;-90
2022/11/01 08:48:04;;;;;;;9.18;1.85;;;;;;;17.00;100.00;97127.72;6147682;23;20204;-90
2022/11/01 08:50:32;;;;;;;12.43;2.00;;;;;;;16.55;100.00;97127.75;6175403;23;20005;-91
2022/11/01 08:53:02;;;;;;;16.08;2.17;;;;;;;17.47;100.00;97117.81;6146195;23;20009;-90
2022/11/01 08:55:28;;;;;;;11.23;1.88;;;;;;;16.34;100.00;97121.97;6146871;23;20005;-91
2022/11/01 08:57:57;;;;;;;10.68;1.75;;;;;;;18.22;100.00;97117.41;6173520;23;20024;-94
2022/11/01 09:00:23;;;;;;;9.52;1.77;;;;;;;17.77;100.00;97114.97;6147407;23;20019;-92
2022/11/01 09:02:49;;;;;;;11.15;2.08;;;;;;;17.15;100.00;97131.22;6172520;23;20021;-91
2022/11/01 09:05:15;;;;;;;9.27;1.50;;;;;;;16.88;100.00;97117.00;6146866;23;20033;-92
2022/11/01 09:07:42;;;;;;;12.82;1.83;;;;;;;16.92;100.00;97106.28;6149630;23;20450;-91
2022/11/01 09:10:09;;;;;;;8.77;1.77;;;;;;;17.14;100.00;97121.63;6173733;23;20020;-91
2022/11/01 09:12:35;;;;;;;9.88;1.45;;;;;;;17.15;100.00;97118.03;6141475;23;20009;-91
2022/11/01 09:15:04;;;;;;;10.45;1.90;;;;;;;17.14;100.00;97126.88;6145335;23;20091;-92
2022/11/01 09:17:30;;;;;;;12.90;1.73;;;;;;;17.39;100.00;97105.94;6145748;23;20028;-91
2022/11/01 09:19:56;;;;;;;10.48;1.90;;;;;;;17.14;100.00;97118.97;6172944;23;20032;-92
2022/11/01 09:22:22;;;;;;;11.23;1.60;;;;;;;16.97;100.00;97122.66;6144965;23;20079;-91
2022/11/01 09:24:48;;;;;;;12.70;1.73;;;;;;;16.32;100.00;97121.22;6142942;23;20005;-89
2022/11/01 09:27:15;;;;;;;9.80;1.83;;;;;;;16.60;100.00;97138.00;6140059;23;20023;-92
2022/11/01 09:29:43;;;;;;;8.82;2.13;;;;;;;17.28;100.00;97132.13;6144118;23;20291;-91
2022/11/01 09:32:09;;;;;;;6.00;1.20;;;;;;;17.19;100.00;97120.38;6147338;23;20443;-92
2022/11/01 09:34:34;;;;;;;10.77;1.58;;;;;;;16.52;100.00;97112.13;6148183;23;20009;-92
2022/11/01 09:37:00;;;;;;;10.30;1.40;;;;;;;17.40;100.00;97105.00;6148298;23;20115;-92
2022/11/01 09:39:26;;;;;;;9.63;1.52;;;;;;;17.50;100.00;97109.72;6151451;23;20017;-91
2022/11/01 09:41:57;;;;;;;8.77;1.55;;;;;;;17.83;100.00;97132.19;6151627;23;20005;-91
2022/11/01 09:44:33;;;;;;;10.15;1.52;;;;;;;18.52;100.00;97101.25;6147472;23;20017;-92
2022/11/01 09:47:04;;;;;;;6.47;1.50;;;;;;;17.82;100.00;97099.72;6144486;23;20021;-92
2022/11/01 09:49:36;;;;;;;7.18;1.17;;;;;;;17.79;100.00;97110.47;6144354;23;20005;-92
2022/11/01 09:52:07;;;;;;;8.02;1.30;;;;;;;18.24;100.00;97097.03;6145222;23;20049;-92
2022/11/01 09:54:36;;;;;;;10.13;1.65;;;;;;;20.96;100.00;97077.53;6146944;23;20121;-92
2022/11/01 09:57:25;;;;;;;8.80;1.40;;;;;;;19.88;100.00;97035.41;6150312;23;20528;-92
2022/11/01 09:59:57;;;;;;;8.90;1.25;;;;;;;19.10;100.00;97034.81;6147285;23;20396;-92
2022/11/01 10:03:37;;;;;;;7.20;1.40;;;;;;;20.57;100.00;97026.63;6149733;23;20309;-92
2022/11/01 10:06:15;;;;;;;11.27;1.52;;;;;;;21.48;100.00;96945.22;6035914;23;20079;-93
2022/11/01 10:08:56;;;;;;;9.90;1.50;;;;;;;21.03;100.00;96978.00;6149112;23;20100;-93
2022/11/01 10:11:27;;;;;;;9.55;1.50;;;;;;;18.33;100.00;96996.13;6148838;23;20009;-92
2022/11/01 10:14:07;;;;;;;8.93;1.60;;;;;;;20.06;100.00;96991.66;6146087;23;20009;-92
2022/11/01 10:16:48;;;;;;;9.82;1.52;;;;;;;19.50;100.00;96991.44;6149720;23;20012;-92
2022/11/01 10:19:21;;;;;;;10.57;1.50;;;;;;;20.53;100.00;96974.88;6148829;23;20104;-93
2022/11/01 10:21:49;;;;;;;6.75;1.27;;;;;;;21.73;100.00;96953.84;6150400;23;20056;-93
2022/11/01 10:24:21;;;;;;;12.13;1.98;;;;;;;20.81;100.00;96976.22;6146911;23;20409;-92
2022/11/01 10:27:03;;;;;;;7.22;1.33;;;;;;;19.50;100.00;96987.00;6147292;23;20013;-93
2022/11/01 10:29:39;;;;;;;8.38;1.42;;;;;;;19.46;100.00;96982.91;6148338;23;20005;-92
2022/11/01 10:32:23;;;;;;;10.10;1.60;;;;;;;19.54;100.00;96985.81;6148593;23;20009;-92
2022/11/01 10:34:49;;;;;;;;;;;;;;;19.26;100.00;97013.41;6151951;23;20013;-93
2022/11/01 10:37:24;;;;;;;8.00;1.48;;;;;;;19.59;100.00;97018.03;6147754;23;19909;-93
2022/11/01 10:40:13;;;;;;;10.80;1.58;;;;;;;20.09;100.00;97001.19;6149925;23;20017;-93
2022/11/01 10:42:39;;;;;;;9.00;1.40;;;;;;;18.26;100.00;97031.81;6149807;23;20088;-92
2022/11/01 10:45:16;;;;;;;7.68;1.17;;;;;;;19.41;100.00;97004.34;6146718;23;20037;-92
2022/11/01 10:47:42;;;;;;;7.93;1.25;;;;;;;19.35;100.00;97019.84;6147977;23;20017;-92
2022/11/01 10:50:11;;;;;;;8.55;1.20;;;;;;;19.50;100.00;97002.88;6145623;23;20443;-92
2022/11/01 10:52:52;;;;;;;12.52;1.38;;;;;;;18.68;100.00;97021.88;6147900;23;20005;-91
2022/11/01 10:55:27;;;;;;;11.25;1.30;;;;;;;20.92;100.00;97005.38;6148525;23;20009;-90
2022/11/01 10:58:07;;;;;;;10.10;1.58;;;;;;;19.71;100.00;97020.75;6149230;23;20010;-91
2022/11/01 11:00:38;;;;;;;12.00;1.33;;;;;;;19.63;100.00;97023.13;6147605;23;20013;-92
2022/11/01 11:03:25;;;;;;;10.13;1.25;;;;;;;19.44;100.00;97022.66;6148747;23;20027;-91
2022/11/01 11:05:53;;;;;;;6.43;1.38;;;;;;;19.85;100.00;97027.69;6147012;23;20013;-92
2022/11/01 11:08:22;;;;;;;9.13;1.40;;;;;;;19.42;100.00;97021.91;6147558;23;20005;-92
2022/11/01 11:10:51;;;;;;;12.00;1.45;;;;;;;19.48;100.00;97027.72;6148035;23;20242;-91
2022/11/01 11:13:23;;;;;;;10.90;1.40;;;;;;;20.51;100.00;97027.94;6147942;23;20037;-91
2022/11/01 11:15:59;;;;;;;9.00;1.52;;;;;;;19.86;100.00;97032.00;6147979;23;20006;-92
2022/11/01 11:18:37;;;;;;;8.52;1.50;;;;;;;20.46;100.00;97024.84;6149312;23;20017;-92
2022/11/01 11:21:13;;;;;;;9.32;1.42;;;;;;;21.02;100.00;97015.25;6148172;23;20009;-91
2022/11/01 11:23:45;;;;;;;10.05;1.30;;;;;;;20.08;100.00;97010.94;6147854;23;20006;-92
2022/11/01 11:26:17;;;;;;;6.25;1.38;;;;;;;20.74;100.00;97006.84;6149575;23;20010;-92
2022/11/01 11:28:52;;;;;;;7.85;1.63;;;;;;;20.39;100.00;97028.91;6146666;23;20020;-91
2022/11/01 11:31:30;;;;;;;8.70;1.52;;;;;;;19.92;100.00;97028.91;6146659;23;20396;-92
2022/11/01 11:34:20;;;;;;;11.05;1.52;;;;;;;19.60;100.00;97032.13;6147954;23;20013;-92
2022/11/01 11:36:52;;;;;;;9.05;1.67;;;;;;;19.74;100.00;97042.50;6147382;23;20384;-91
2022/11/01 11:39:29;;;;;;;13.80;1.92;;;;;;;19.68;100.00;97039.47;6146363;23;20428;-91